sensor_id;sensor_type;location;lat;lon;timestamp;pressure;altitude;pressure_sealevel;temperature;humidity
44079;BME280;29744;49.078;12.878;2023-04-07T00:01:51;96492.91;;;14.88;34.24
44079;BME280;29744;49.078;12.878;2023-04-07T00:06:51;96499.75;;;14.86;34.05
44079;BME280;29744;49.078;12.878;2023-04-07T00:11:54;96495.78;;;14.83;34.06
44079;BME280;29744;49.078;12.878;2023-04-07T00:16:55;96496.13;;;14.81;34.02
44079;BME280;29744;49.078;12.878;2023-04-07T00:21:55;96492.16;;;14.79;33.99
44079;BME280;29744;49.078;12.878;2023-04-07T00:26:56;96485.50;;;14.76;34.59
44079;BME280;29744;49.078;12.878;2023-04-07T00:31:56;96479.63;;;14.74;34.44
44079;BME280;29744;49.078;12.878;2023-04-07T00:36:56;96473.75;;;14.72;34.35
44079;BME280;29744;49.078;12.878;2023-04-07T00:41:56;96475.19;;;14.70;34.43
44079;BME280;29744;49.078;12.878;2023-04-07T00:46:57;96473.16;;;14.67;34.34
44079;BME280;29744;49.078;12.878;2023-04-07T00:51:58;96467.75;;;14.67;34.30
44079;BME280;29744;49.078;12.878;2023-04-07T00:56:58;96466.50;;;14.64;34.37
44079;BME280;29744;49.078;12.878;2023-04-07T01:02:05;96461.75;;;14.61;34.72
44079;BME280;29744;49.078;12.878;2023-04-07T01:07:15;96453.50;;;14.58;34.74
44079;BME280;29744;49.078;12.878;2023-04-07T01:12:23;96451.91;;;14.57;34.45
44079;BME280;29744;49.078;12.878;2023-04-07T01:17:28;96441.75;;;14.54;34.60
44079;BME280;29744;49.078;12.878;2023-04-07T01:22:42;96445.91;;;14.51;34.38
44079;BME280;29744;49.078;12.878;2023-04-07T01:32:52;96440.69;;;14.46;34.24
44079;BME280;29744;49.078;12.878;2023-04-07T01:37:54;96442.59;;;14.45;34.90
44079;BME280;29744;49.078;12.878;2023-04-07T01:42:56;96441.31;;;14.43;34.29
44079;BME280;29744;49.078;12.878;2023-04-07T01:47:57;96437.03;;;14.42;34.51
44079;BME280;29744;49.078;12.878;2023-04-07T01:52:58;96440.38;;;14.39;34.62
44079;BME280;29744;49.078;12.878;2023-04-07T01:58:03;96432.63;;;14.37;34.43
44079;BME280;29744;49.078;12.878;2023-04-07T02:03:08;96437.53;;;14.35;34.92
44079;BME280;29744;49.078;12.878;2023-04-07T02:08:10;96427.88;;;14.34;34.84
44079;BME280;29744;49.078;12.878;2023-04-07T02:13:17;96422.00;;;14.32;34.54
44079;BME280;29744;49.078;12.878;2023-04-07T02:18:19;96425.34;;;14.29;34.91
44079;BME280;29744;49.078;12.878;2023-04-07T02:23:20;96424.06;;;14.27;34.72
44079;BME280;29744;49.078;12.878;2023-04-07T02:28:21;96419.00;;;14.25;34.55
44079;BME280;29744;49.078;12.878;2023-04-07T02:33:21;96420.91;;;14.25;34.76
44079;BME280;29744;49.078;12.878;2023-04-07T02:38:21;96421.53;;;14.22;34.76
44079;BME280;29744;49.078;12.878;2023-04-07T02:43:22;96422.63;;;14.21;34.76
44079;BME280;29744;49.078;12.878;2023-04-07T02:48:22;96422.97;;;14.19;34.72
44079;BME280;29744;49.078;12.878;2023-04-07T02:53:22;96420.25;;;14.19;34.71
44079;BME280;29744;49.078;12.878;2023-04-07T02:58:23;96415.19;;;14.17;34.53
44079;BME280;29744;49.078;12.878;2023-04-07T03:03:23;96415.19;;;14.17;34.87
44079;BME280;29744;49.078;12.878;2023-04-07T03:08:23;96405.03;;;14.14;34.75
44079;BME280;29744;49.078;12.878;2023-04-07T03:13:24;96406.94;;;14.14;34.75
44079;BME280;29744;49.078;12.878;2023-04-07T03:18:24;96404.56;;;14.12;34.48
44079;BME280;29744;49.078;12.878;2023-04-07T03:23:24;96403.00;;;14.11;34.92
44079;BME280;29744;49.078;12.878;2023-04-07T03:28:25;96399.81;;;14.09;35.06
44079;BME280;29744;49.078;12.878;2023-04-07T03:33:25;96395.53;;;14.08;34.67
44079;BME280;29744;49.078;12.878;2023-04-07T03:38:25;96391.25;;;14.07;34.87
44079;BME280;29744;49.078;12.878;2023-04-07T03:43:26;96389.34;;;14.08;34.97
44079;BME280;29744;49.078;12.878;2023-04-07T03:48:26;96395.22;;;14.10;34.62
44079;BME280;29744;49.078;12.878;2023-04-07T03:53:26;96393.78;;;14.12;34.99
44079;BME280;29744;49.078;12.878;2023-04-07T03:58:26;96391.69;;;14.18;34.75
44079;BME280;29744;49.078;12.878;2023-04-07T04:03:27;96387.91;;;14.28;34.92
44079;BME280;29744;49.078;12.878;2023-04-07T04:08:28;96380.56;;;14.37;34.98
44079;BME280;29744;49.078;12.878;2023-04-07T04:13:28;96384.94;;;14.50;34.70
44079;BME280;29744;49.078;12.878;2023-04-07T04:18:28;96376.97;;;14.62;34.39
44079;BME280;29744;49.078;12.878;2023-04-07T04:23:28;96381.34;;;14.75;34.54
44079;BME280;29744;49.078;12.878;2023-04-07T04:28:29;96377.28;;;14.90;34.26
44079;BME280;29744;49.078;12.878;2023-04-07T04:33:30;96376.41;;;15.07;34.37
44079;BME280;29744;49.078;12.878;2023-04-07T04:38:30;96378.19;;;15.24;34.40
44079;BME280;29744;49.078;12.878;2023-04-07T04:43:32;96366.78;;;15.39;33.98
44079;BME280;29744;49.078;12.878;2023-04-07T04:48:32;96361.56;;;15.55;34.13
44079;BME280;29744;49.078;12.878;2023-04-07T04:53:32;96360.28;;;15.73;34.24
44079;BME280;29744;49.078;12.878;2023-04-07T04:58:34;96356.19;;;15.88;33.57
44079;BME280;29744;49.078;12.878;2023-04-07T05:03:34;96359.38;;;16.02;34.02
44079;BME280;29744;49.078;12.878;2023-04-07T05:08:34;96355.13;;;16.13;33.46
44079;BME280;29744;49.078;12.878;2023-04-07T05:13:35;96349.28;;;16.23;33.61
44079;BME280;29744;49.078;12.878;2023-04-07T05:18:35;96348.38;;;16.31;33.47
44079;BME280;29744;49.078;12.878;2023-04-07T05:23:35;96348.63;;;16.38;33.31
44079;BME280;29744;49.078;12.878;2023-04-07T05:28:35;96341.88;;;16.45;33.29
44079;BME280;29744;49.078;12.878;2023-04-07T05:33:36;96342.78;;;16.49;33.36
44079;BME280;29744;49.078;12.878;2023-04-07T05:38:36;96342.09;;;16.52;33.17
44079;BME280;29744;49.078;12.878;2023-04-07T05:43:36;96345.28;;;16.54;33.21
44079;BME280;29744;49.078;12.878;2023-04-07T05:48:37;96347.97;;;16.54;33.15
44079;BME280;29744;49.078;12.878;2023-04-07T05:53:37;96343.69;;;16.53;33.05
44079;BME280;29744;49.078;12.878;2023-04-07T05:58:37;96347.19;;;16.53;32.93
44079;BME280;29744;49.078;12.878;2023-04-07T06:03:37;96347.53;;;16.52;33.11
44079;BME280;29744;49.078;12.878;2023-04-07T06:08:39;96343.25;;;16.51;32.93
44079;BME280;29744;49.078;12.878;2023-04-07T06:13:40;96340.09;;;16.49;33.11
44079;BME280;29744;49.078;12.878;2023-04-07T06:18:40;96333.44;;;16.46;33.28
44079;BME280;29744;49.078;12.878;2023-04-07T06:23:41;96337.59;;;16.44;32.86
44079;BME280;29744;49.078;12.878;2023-04-07T06:28:41;96335.56;;;16.40;32.78
44079;BME280;29744;49.078;12.878;2023-04-07T06:33:41;96332.72;;;16.37;33.37
44079;BME280;29744;49.078;12.878;2023-04-07T06:38:42;96335.31;;;16.33;33.32
44079;BME280;29744;49.078;12.878;2023-04-07T06:43:43;96333.28;;;16.30;33.35
44079;BME280;29744;49.078;12.878;2023-04-07T06:48:44;96337.78;;;16.26;33.30
44079;BME280;29744;49.078;12.878;2023-04-07T06:53:44;96330.69;;;16.22;33.29
44079;BME280;29744;49.078;12.878;2023-04-07T06:58:46;96331.34;;;16.19;33.16
44079;BME280;29744;49.078;12.878;2023-04-07T07:03:46;96334.72;;;16.16;33.20
44079;BME280;29744;49.078;12.878;2023-04-07T07:08:46;96334.59;;;16.12;33.45
44079;BME280;29744;49.078;12.878;2023-04-07T07:13:47;96331.78;;;16.08;33.02
44079;BME280;29744;49.078;12.878;2023-04-07T07:18:47;96328.16;;;16.04;33.30
44079;BME280;29744;49.078;12.878;2023-04-07T07:23:47;96325.34;;;16.01;33.50
44079;BME280;29744;49.078;12.878;2023-04-07T07:28:48;96327.94;;;15.97;32.92
44079;BME280;29744;49.078;12.878;2023-04-07T07:33:48;96327.03;;;15.93;33.42
44079;BME280;29744;49.078;12.878;2023-04-07T07:38:50;96327.25;;;15.88;33.55
44079;BME280;29744;49.078;12.878;2023-04-07T07:43:50;96324.41;;;15.85;33.32
44079;BME280;29744;49.078;12.878;2023-04-07T07:48:51;96319.69;;;15.82;33.06
44079;BME280;29744;49.078;12.878;2023-04-07T07:53:51;96316.03;;;15.77;33.23
44079;BME280;29744;49.078;12.878;2023-04-07T07:58:52;96311.28;;;15.74;33.10
44079;BME280;29744;49.078;12.878;2023-04-07T08:03:52;96318.94;;;15.72;33.09
44079;BME280;29744;49.078;12.878;2023-04-07T08:08:52;96310.72;;;15.69;33.31
44079;BME280;29744;49.078;12.878;2023-04-07T08:13:52;96311.38;;;15.66;33.59
44079;BME280;29744;49.078;12.878;2023-04-07T08:18:53;96316.66;;;15.62;33.66
44079;BME280;29744;49.078;12.878;2023-04-07T08:23:53;96311.13;;;15.59;33.49
44079;BME280;29744;49.078;12.878;2023-04-07T08:28:54;96307.19;;;15.56;33.59
44079;BME280;29744;49.078;12.878;2023-04-07T08:33:55;96309.75;;;15.53;33.61
44079;BME280;29744;49.078;12.878;2023-04-07T08:38:57;96306.94;;;15.49;33.55
44079;BME280;29744;49.078;12.878;2023-04-07T08:44:00;96306.81;;;15.45;33.28
44079;BME280;29744;49.078;12.878;2023-04-07T08:49:01;96302.84;;;15.43;33.54
44079;BME280;29744;49.078;12.878;2023-04-07T08:54:09;96299.25;;;15.39;33.64
44079;BME280;29744;49.078;12.878;2023-04-07T08:59:13;96294.50;;;15.36;33.52
44079;BME280;29744;49.078;12.878;2023-04-07T09:04:15;96290.56;;;15.33;33.45
44079;BME280;29744;49.078;12.878;2023-04-07T09:09:15;96283.09;;;15.30;33.77
44079;BME280;29744;49.078;12.878;2023-04-07T09:14:16;96279.50;;;15.26;33.96
44079;BME280;29744;49.078;12.878;2023-04-07T09:19:17;96282.53;;;15.25;33.98
44079;BME280;29744;49.078;12.878;2023-04-07T09:24:26;96278.56;;;15.22;33.94
44079;BME280;29744;49.078;12.878;2023-04-07T09:29:27;96277.66;;;15.18;33.82
44079;BME280;29744;49.078;12.878;2023-04-07T09:34:28;96271.47;;;15.18;33.89
44079;BME280;29744;49.078;12.878;2023-04-07T09:39:29;96273.25;;;15.13;33.47
44079;BME280;29744;49.078;12.878;2023-04-07T09:44:38;96270.09;;;15.11;33.89
44079;BME280;29744;49.078;12.878;2023-04-07T09:49:52;96270.75;;;15.08;33.69
44079;BME280;29744;49.078;12.878;2023-04-07T09:54:53;96258.69;;;15.06;33.88
44079;BME280;29744;49.078;12.878;2023-04-07T09:59:55;96256.31;;;15.04;34.15
44079;BME280;29744;49.078;12.878;2023-04-07T10:04:58;96253.16;;;15.02;33.95
44079;BME280;29744;49.078;12.878;2023-04-07T10:09:59;96248.41;;;14.99;33.89
44079;BME280;29744;49.078;12.878;2023-04-07T10:14:59;96241.75;;;14.97;33.70
44079;BME280;29744;49.078;12.878;2023-04-07T10:20:01;96226.66;;;14.96;33.84
44079;BME280;29744;49.078;12.878;2023-04-07T10:25:05;96230.03;;;14.93;34.05
44079;BME280;29744;49.078;12.878;2023-04-07T10:30:11;96232.00;;;14.83;34.28
44079;BME280;29744;49.078;12.878;2023-04-07T10:35:13;96221.34;;;14.87;34.09
44079;BME280;29744;49.078;12.878;2023-04-07T10:46:05;96220.16;;;14.76;34.16
44079;BME280;29744;49.078;12.878;2023-04-07T10:50:44;96218.84;;;14.82;34.04
44079;BME280;29744;49.078;12.878;2023-04-07T10:55:45;96215.34;;;14.81;33.78
44079;BME280;29744;49.078;12.878;2023-04-07T11:06:12;96215.56;;;14.76;34.25
44079;BME280;29744;49.078;12.878;2023-04-07T11:11:14;96212.06;;;14.76;34.07
44079;BME280;29744;49.078;12.878;2023-04-07T11:16:19;96205.41;;;14.73;33.97
44079;BME280;29744;49.078;12.878;2023-04-07T11:21:33;96209.22;;;14.72;34.18
44079;BME280;29744;49.078;12.878;2023-04-07T11:26:38;96207.66;;;14.71;34.32
44079;BME280;29744;49.078;12.878;2023-04-07T11:31:39;96189.88;;;14.70;34.38
44079;BME280;29744;49.078;12.878;2023-04-07T11:36:40;96192.91;;;14.69;34.39
44079;BME280;29744;49.078;12.878;2023-04-07T11:41:45;96197.50;;;14.68;34.47
44079;BME280;29744;49.078;12.878;2023-04-07T11:46:56;96189.75;;;14.67;34.25
44079;BME280;29744;49.078;12.878;2023-04-07T11:52:02;96193.56;;;14.66;34.17
44079;BME280;29744;49.078;12.878;2023-04-07T11:57:03;96189.28;;;14.65;34.54
44079;BME280;29744;49.078;12.878;2023-04-07T12:02:03;96186.91;;;14.63;34.45
44079;BME280;29744;49.078;12.878;2023-04-07T12:07:08;96192.66;;;14.62;34.51
44079;BME280;29744;49.078;12.878;2023-04-07T12:12:09;96184.88;;;14.60;34.53
44079;BME280;29744;49.078;12.878;2023-04-07T12:17:19;96186.00;;;14.59;34.37
44079;BME280;29744;49.078;12.878;2023-04-07T12:22:20;96188.69;;;14.59;34.58
44079;BME280;29744;49.078;12.878;2023-04-07T12:27:20;96179.03;;;14.58;34.17
44079;BME280;29744;49.078;12.878;2023-04-07T12:32:20;96185.22;;;14.59;34.42
44079;BME280;29744;49.078;12.878;2023-04-07T12:37:21;96180.94;;;14.58;34.34
44079;BME280;29744;49.078;12.878;2023-04-07T12:42:21;96175.06;;;14.56;34.03
44079;BME280;29744;49.078;12.878;2023-04-07T12:47:22;96177.78;;;14.56;34.33
44079;BME280;29744;49.078;12.878;2023-04-07T12:52:22;96173.50;;;14.55;34.54
44079;BME280;29744;49.078;12.878;2023-04-07T12:57:22;96171.13;;;14.53;34.27
44079;BME280;29744;49.078;12.878;2023-04-07T13:02:23;96171.91;;;14.54;34.66
44079;BME280;29744;49.078;12.878;2023-04-07T13:07:23;96164.94;;;14.53;34.38
44079;BME280;29744;49.078;12.878;2023-04-07T13:12:23;96166.84;;;14.52;34.38
44079;BME280;29744;49.078;12.878;2023-04-07T13:17:24;96165.28;;;14.51;34.54
44079;BME280;29744;49.078;12.878;2023-04-07T13:22:25;96166.38;;;14.50;34.20
44079;BME280;29744;49.078;12.878;2023-04-07T13:27:25;96169.09;;;14.50;34.59
44079;BME280;29744;49.078;12.878;2023-04-07T13:32:26;96163.69;;;14.50;34.34
44079;BME280;29744;49.078;12.878;2023-04-07T13:37:26;96165.59;;;14.49;34.64
44079;BME280;29744;49.078;12.878;2023-04-07T13:42:27;96155.91;;;14.48;34.69
44079;BME280;29744;49.078;12.878;2023-04-07T13:47:27;96152.44;;;14.48;34.53
44079;BME280;29744;49.078;12.878;2023-04-07T13:52:29;96153.22;;;14.48;34.13
44079;BME280;29744;49.078;12.878;2023-04-07T13:57:32;96147.38;;;14.46;34.04
44079;BME280;29744;49.078;12.878;2023-04-07T14:02:32;96153.56;;;14.47;34.29
44079;BME280;29744;49.078;12.878;2023-04-07T14:07:33;96162.78;;;14.46;34.34
44079;BME280;29744;49.078;12.878;2023-04-07T14:12:33;96157.69;;;14.44;34.59
44079;BME280;29744;49.078;12.878;2023-04-07T14:17:33;96154.53;;;14.42;34.44
44079;BME280;29744;49.078;12.878;2023-04-07T14:22:34;96156.44;;;14.42;34.71
44079;BME280;29744;49.078;12.878;2023-04-07T14:27:34;96156.78;;;14.40;34.72
44079;BME280;29744;49.078;12.878;2023-04-07T14:32:34;96158.22;;;14.38;34.40
44079;BME280;29744;49.078;12.878;2023-04-07T14:37:35;96154.75;;;14.37;34.60
44079;BME280;29744;49.078;12.878;2023-04-07T14:42:35;96150.00;;;14.34;34.29
44079;BME280;29744;49.078;12.878;2023-04-07T14:47:36;96146.53;;;14.34;34.61
44079;BME280;29744;49.078;12.878;2023-04-07T14:52:36;96152.25;;;14.32;34.72
44079;BME280;29744;49.078;12.878;2023-04-07T14:57:37;96151.78;;;14.30;34.88
44079;BME280;29744;49.078;12.878;2023-04-07T15:02:37;96153.22;;;14.28;34.53
44079;BME280;29744;49.078;12.878;2023-04-07T15:07:37;96147.03;;;14.27;34.42
44079;BME280;29744;49.078;12.878;2023-04-07T15:12:38;96154.34;;;14.27;34.60
44079;BME280;29744;49.078;12.878;2023-04-07T15:17:38;96154.81;;;14.29;34.65
44079;BME280;29744;49.078;12.878;2023-04-07T15:22:38;96161.91;;;14.33;34.62
44079;BME280;29744;49.078;12.878;2023-04-07T15:27:39;96151.72;;;14.39;34.66
44079;BME280;29744;49.078;12.878;2023-04-07T15:32:39;96154.00;;;14.49;34.26
44079;BME280;29744;49.078;12.878;2023-04-07T15:37:39;96155.53;;;14.59;34.73
44079;BME280;29744;49.078;12.878;2023-04-07T15:42:39;96153.66;;;14.71;34.82
44079;BME280;29744;49.078;12.878;2023-04-07T15:47:40;96158.78;;;14.85;34.36
44079;BME280;29744;49.078;12.878;2023-04-07T15:52:40;96150.38;;;14.99;34.39
44079;BME280;29744;49.078;12.878;2023-04-07T15:57:40;96151.69;;;15.13;34.61
44079;BME280;29744;49.078;12.878;2023-04-07T16:02:41;96156.91;;;15.31;34.10
44079;BME280;29744;49.078;12.878;2023-04-07T16:07:41;96160.53;;;15.47;34.18
44079;BME280;29744;49.078;12.878;2023-04-07T16:12:41;96150.66;;;15.63;34.18
44079;BME280;29744;49.078;12.878;2023-04-07T16:17:44;96154.72;;;15.82;33.90
44079;BME280;29744;49.078;12.878;2023-04-07T16:22:46;96159.91;;;15.99;34.04
44079;BME280;29744;49.078;12.878;2023-04-07T16:27:47;96170.03;;;16.14;33.86
44079;BME280;29744;49.078;12.878;2023-04-07T16:32:47;96164.72;;;16.30;33.32
44079;BME280;29744;49.078;12.878;2023-04-07T16:37:47;96168.22;;;16.42;33.53
44079;BME280;29744;49.078;12.878;2023-04-07T16:42:49;96169.66;;;16.52;33.54
44079;BME280;29744;49.078;12.878;2023-04-07T16:47:49;96173.81;;;16.62;33.09
44079;BME280;29744;49.078;12.878;2023-04-07T16:52:49;96169.41;;;16.69;33.55
44079;BME280;29744;49.078;12.878;2023-04-07T16:57:49;96176.50;;;16.74;33.26
44079;BME280;29744;49.078;12.878;2023-04-07T17:02:50;96184.72;;;16.78;32.87
44079;BME280;29744;49.078;12.878;2023-04-07T17:07:50;96191.38;;;16.80;33.19
44079;BME280;29744;49.078;12.878;2023-04-07T17:12:50;96189.91;;;16.83;33.11
44079;BME280;29744;49.078;12.878;2023-04-07T17:17:55;96198.03;;;16.83;32.94
44079;BME280;29744;49.078;12.878;2023-04-07T17:22:55;96206.13;;;16.83;33.38
44079;BME280;29744;49.078;12.878;2023-04-07T17:27:55;96214.63;;;16.81;32.72
44079;BME280;29744;49.078;12.878;2023-04-07T17:32:55;96206.03;;;16.79;32.89
44079;BME280;29744;49.078;12.878;2023-04-07T17:37:56;96209.09;;;16.78;32.72
44079;BME280;29744;49.078;12.878;2023-04-07T17:42:57;96210.22;;;16.77;32.60
44079;BME280;29744;49.078;12.878;2023-04-07T17:47:59;96210.56;;;16.75;33.26
44079;BME280;29744;49.078;12.878;2023-04-07T17:53:02;96223.66;;;16.73;33.15
44079;BME280;29744;49.078;12.878;2023-04-07T17:58:03;96229.06;;;16.73;33.24
44079;BME280;29744;49.078;12.878;2023-04-07T18:03:03;96234.03;;;16.71;33.30
44079;BME280;29744;49.078;12.878;2023-04-07T18:08:04;96244.09;;;16.70;33.08
44079;BME280;29744;49.078;12.878;2023-04-07T18:13:04;96245.66;;;16.71;33.14
44079;BME280;29744;49.078;12.878;2023-04-07T18:18:05;96257.63;;;16.70;33.04
44079;BME280;29744;49.078;12.878;2023-04-07T18:23:06;96257.19;;;16.68;33.03
44079;BME280;29744;49.078;12.878;2023-04-07T18:28:07;96267.66;;;16.70;33.05
44079;BME280;29744;49.078;12.878;2023-04-07T18:33:07;96279.28;;;16.70;33.18
44079;BME280;29744;49.078;12.878;2023-04-07T18:38:07;96284.72;;;16.70;33.20
44079;BME280;29744;49.078;12.878;2023-04-07T18:43:08;96288.53;;;16.69;32.98
44079;BME280;29744;49.078;12.878;2023-04-07T18:48:08;96291.59;;;16.68;32.72
44079;BME280;29744;49.078;12.878;2023-04-07T18:53:08;96300.06;;;16.66;33.29
44079;BME280;29744;49.078;12.878;2023-04-07T18:58:09;96297.69;;;16.65;32.98
44079;BME280;29744;49.078;12.878;2023-04-07T19:03:09;96309.66;;;16.64;33.00
44079;BME280;29744;49.078;12.878;2023-04-07T19:08:09;96303.34;;;16.60;32.95
44079;BME280;29744;49.078;12.878;2023-04-07T19:13:10;96312.94;;;16.57;33.10
44079;BME280;29744;49.078;12.878;2023-04-07T19:18:11;96319.00;;;16.54;33.24
44079;BME280;29744;49.078;12.878;2023-04-07T19:23:12;96326.22;;;16.50;32.91
44079;BME280;29744;49.078;12.878;2023-04-07T19:28:12;96326.09;;;16.47;33.31
44079;BME280;29744;49.078;12.878;2023-04-07T19:33:13;96337.25;;;16.45;32.94
44079;BME280;29744;49.078;12.878;2023-04-07T19:38:13;96342.56;;;16.41;33.34
44079;BME280;29744;49.078;12.878;2023-04-07T19:43:13;96339.38;;;16.39;33.22
44079;BME280;29744;49.078;12.878;2023-04-07T19:48:16;96345.13;;;16.38;33.16
44079;BME280;29744;49.078;12.878;2023-04-07T19:53:16;96345.47;;;16.36;33.57
44079;BME280;29744;49.078;12.878;2023-04-07T19:58:17;96342.31;;;16.34;33.05
44079;BME280;29744;49.078;12.878;2023-04-07T20:03:18;96348.50;;;16.35;33.15
44079;BME280;29744;49.078;12.878;2023-04-07T20:08:18;96354.25;;;16.33;33.59
44079;BME280;29744;49.078;12.878;2023-04-07T20:13:19;96358.09;;;16.32;33.21
44079;BME280;29744;49.078;12.878;2023-04-07T20:18:19;96359.22;;;16.31;33.58
44079;BME280;29744;49.078;12.878;2023-04-07T20:23:19;96356.84;;;16.30;33.45
44079;BME280;29744;49.078;12.878;2023-04-07T20:28:21;96350.97;;;16.28;33.29
44079;BME280;29744;49.078;12.878;2023-04-07T20:33:22;96363.59;;;16.24;33.47
44079;BME280;29744;49.078;12.878;2023-04-07T20:38:22;96373.97;;;16.22;33.63
44079;BME280;29744;49.078;12.878;2023-04-07T20:43:22;96373.50;;;16.20;33.42
44079;BME280;29744;49.078;12.878;2023-04-07T20:48:23;96385.00;;;16.17;33.52
44079;BME280;29744;49.078;12.878;2023-04-07T20:53:24;96378.69;;;16.13;33.11
44079;BME280;29744;49.078;12.878;2023-04-07T20:58:24;96381.72;;;16.11;33.36
44079;BME280;29744;49.078;12.878;2023-04-07T21:03:25;96379.69;;;16.08;33.47
44079;BME280;29744;49.078;12.878;2023-04-07T21:08:26;96377.66;;;16.05;33.75
44079;BME280;29744;49.078;12.878;2023-04-07T21:13:26;96375.63;;;16.02;33.37
44079;BME280;29744;49.078;12.878;2023-04-07T21:18:28;96385.19;;;15.99;33.48
44079;BME280;29744;49.078;12.878;2023-04-07T21:23:28;96382.38;;;15.96;33.25
44079;BME280;29744;49.078;12.878;2023-04-07T21:28:30;96391.47;;;15.91;33.40
44079;BME280;29744;49.078;12.878;2023-04-07T21:33:30;96377.84;;;15.88;33.58
44079;BME280;29744;49.078;12.878;2023-04-07T21:38:30;96380.41;;;15.84;33.62
44079;BME280;29744;49.078;12.878;2023-04-07T21:43:31;96376.47;;;15.82;33.38
44079;BME280;29744;49.078;12.878;2023-04-07T21:48:33;96377.09;;;15.78;33.92
44079;BME280;29744;49.078;12.878;2023-04-07T21:53:33;96369.31;;;15.77;33.48
44079;BME280;29744;49.078;12.878;2023-04-07T21:58:36;96365.69;;;15.73;33.69
44079;BME280;29744;49.078;12.878;2023-04-07T22:03:37;96380.22;;;15.68;33.70
44079;BME280;29744;49.078;12.878;2023-04-07T22:08:38;96378.97;;;15.66;33.66
44079;BME280;29744;49.078;12.878;2023-04-07T22:13:38;96381.22;;;15.64;33.81
44079;BME280;29744;49.078;12.878;2023-04-07T22:18:39;96377.59;;;15.60;34.08
44079;BME280;29744;49.078;12.878;2023-04-07T22:23:39;96373.63;;;15.57;33.79
44079;BME280;29744;49.078;12.878;2023-04-07T22:28:40;96376.66;;;15.56;33.82
44079;BME280;29744;49.078;12.878;2023-04-07T22:33:40;96373.50;;;15.54;34.13
44079;BME280;29744;49.078;12.878;2023-04-07T22:38:41;96374.16;;;15.51;33.60
44079;BME280;29744;49.078;12.878;2023-04-07T22:43:41;96371.78;;;15.49;33.75
44079;BME280;29744;49.078;12.878;2023-04-07T22:48:41;96366.25;;;15.45;33.86
44079;BME280;29744;49.078;12.878;2023-04-07T22:53:42;96364.22;;;15.42;34.18
44079;BME280;29744;49.078;12.878;2023-04-07T22:58:42;96364.88;;;15.39;34.21
44079;BME280;29744;49.078;12.878;2023-04-07T23:03:42;96364.41;;;15.37;34.25
44079;BME280;29744;49.078;12.878;2023-04-07T23:08:43;96365.88;;;15.35;34.24
44079;BME280;29744;49.078;12.878;2023-04-07T23:13:43;96375.44;;;15.32;34.27
44079;BME280;29744;49.078;12.878;2023-04-07T23:18:44;96376.88;;;15.30;33.97
44079;BME280;29744;49.078;12.878;2023-04-07T23:23:44;96373.25;;;15.26;34.24
44079;BME280;29744;49.078;12.878;2023-04-07T23:28:44;96376.28;;;15.24;33.90
44079;BME280;29744;49.078;12.878;2023-04-07T23:33:46;96372.34;;;15.22;34.38
44079;BME280;29744;49.078;12.878;2023-04-07T23:38:46;96378.38;;;15.19;33.99
44079;BME280;29744;49.078;12.878;2023-04-07T23:43:47;96383.34;;;15.17;34.21
44079;BME280;29744;49.078;12.878;2023-04-07T23:48:47;96380.97;;;15.15;34.12
44079;BME280;29744;49.078;12.878;2023-04-07T23:53:47;96379.25;;;15.10;34.22
44079;BME280;29744;49.078;12.878;2023-04-07T23:58:47;96376.09;;;15.08;34.03
